Time;durP1;ratioP1;P1;durP2;ratioP2;P2;SDS_P1;SDS_P2;PMS_P1;PMS_P2;Temp;Humidity;BMP_temperature;BMP_pressure;BME280_temperature;BME280_humidity;BME280_pressure;Samples;Min_cycle;Max_cycle;Signal;HPM_P1;HPM_P2
2023/02/11 03:00:29;;;;;;;33.30;24.47;;;-2.40;99.90;;;;;;6041506;23;20412;31
2023/02/11 03:03:12;;;;;;;33.63;23.77;;;-2.40;99.90;;;;;;4922380;29;20964;-77
2023/02/11 03:05:48;;;;;;;32.90;26.10;;;-2.50;99.90;;;;;;4923864;29;20606;-77
2023/02/11 03:08:23;;;;;;;35.27;27.07;;;-2.40;99.90;;;;;;4925649;29;20554;-77
2023/02/11 03:10:53;;;;;;;40.03;27.30;;;-2.40;99.90;;;;;;4924594;29;20459;-77
2023/02/11 03:13:25;;;;;;;39.50;28.43;;;-2.40;99.90;;;;;;4927645;29;20451;-77
2023/02/11 03:15:57;;;;;;;35.23;26.33;;;-2.30;99.90;;;;;;4923291;29;20506;-78
2023/02/11 03:18:28;;;;;;;34.23;26.30;;;-2.30;99.90;;;;;;4916391;29;20507;-77
2023/02/11 03:20:56;;;;;;;39.67;28.50;;;-2.20;99.90;;;;;;4914843;29;20568;-77
2023/02/11 03:23:28;;;;;;;37.73;28.20;;;-2.20;99.90;;;;;;4922278;29;20505;-79
2023/02/11 03:25:59;;;;;;;32.13;26.07;;;-2.20;99.90;;;;;;4917946;29;20461;-77
2023/02/11 03:28:30;;;;;;;33.47;26.67;;;-2.20;99.90;;;;;;4928463;29;20442;-78
2023/02/11 03:31:07;;;;;;;37.40;27.90;;;-2.20;99.90;;;;;;4919686;29;20465;-79
2023/02/11 03:33:41;;;;;;;37.40;28.00;;;-2.30;99.90;;;;;;4917451;29;20464;-78
2023/02/11 03:36:11;;;;;;;37.73;28.53;;;-2.20;99.90;;;;;;4920734;29;21006;-77
2023/02/11 03:38:43;;;;;;;39.43;27.57;;;-2.20;99.90;;;;;;4917627;29;20495;-77
2023/02/11 03:41:12;;;;;;;33.83;25.70;;;-2.20;99.90;;;;;;4924730;29;20509;-77
2023/02/11 03:43:42;;;;;;;33.20;25.83;;;-2.20;99.90;;;;;;4922849;29;20438;-77
2023/02/11 03:46:12;;;;;;;33.37;25.73;;;-2.20;99.90;;;;;;4918234;29;20452;-77
2023/02/11 03:48:41;;;;;;;37.57;25.90;;;-2.20;99.90;;;;;;4923421;29;20471;-77
2023/02/11 03:51:12;;;;;;;33.80;24.73;;;-2.10;99.90;;;;;;4921445;29;20457;-77
2023/02/11 03:53:42;;;;;;;36.43;26.97;;;-2.10;99.90;;;;;;4929607;29;20435;-78
2023/02/11 03:56:15;;;;;;;32.47;26.07;;;-2.10;99.90;;;;;;4927028;29;20495;-77
2023/02/11 03:58:44;;;;;;;37.03;26.37;;;-2.10;99.90;;;;;;4924280;29;20512;-77
2023/02/11 04:01:12;;;;;;;34.93;25.50;;;-2.10;99.90;;;;;;4922935;29;20555;-78
2023/02/11 04:03:39;;;;;;;36.73;25.80;;;-2.10;99.90;;;;;;4919432;29;20482;-84
2023/02/11 04:06:06;;;;;;;30.23;24.70;;;-2.20;99.90;;;;;;4916018;29;20453;-78
2023/02/11 04:08:33;;;;;;;32.67;24.57;;;-2.30;99.90;;;;;;4924111;29;20543;-77
2023/02/11 04:11:00;;;;;;;30.00;24.30;;;-2.30;99.90;;;;;;4921994;29;20461;-79
2023/02/11 04:13:27;;;;;;;37.30;26.67;;;-2.40;99.90;;;;;;4912254;29;20452;-83
2023/02/11 04:15:53;;;;;;;37.63;27.43;;;-2.40;99.90;;;;;;4920642;29;20459;-81
2023/02/11 04:18:21;;;;;;;35.30;27.70;;;-2.40;99.90;;;;;;4911193;29;20548;-78
2023/02/11 04:20:50;;;;;;;34.73;26.93;;;-2.40;99.90;;;;;;4910902;29;20925;-77
2023/02/11 04:23:17;;;;;;;35.90;27.63;;;-2.30;99.90;;;;;;4910583;29;20457;-77
2023/02/11 04:25:43;;;;;;;37.17;27.67;;;-2.20;99.90;;;;;;4910438;29;20453;-77
2023/02/11 04:28:10;;;;;;;33.57;26.17;;;-2.20;99.90;;;;;;4917832;29;20495;-77
2023/02/11 04:30:37;;;;;;;29.03;24.83;;;-2.20;99.90;;;;;;4909831;29;20457;-77
2023/02/11 04:33:04;;;;;;;37.37;25.77;;;-2.10;99.90;;;;;;4917240;29;20476;-77
2023/02/11 04:35:32;;;;;;;35.17;26.33;;;-2.10;99.90;;;;;;4922061;29;20507;-77
2023/02/11 04:37:59;;;;;;;33.87;26.33;;;-1.90;99.90;;;;;;4920044;29;20432;-78
2023/02/11 04:40:26;;;;;;;35.53;24.57;;;-1.80;99.90;;;;;;4920688;29;20463;-78
2023/02/11 04:42:52;;;;;;;34.57;25.90;;;-1.80;99.90;;;;;;4921347;29;20541;-77
2023/02/11 04:45:19;;;;;;;33.33;26.17;;;-1.70;99.90;;;;;;4926057;29;20643;-78
2023/02/11 04:47:46;;;;;;;33.07;24.77;;;-1.70;99.90;;;;;;4919783;29;20496;-77
2023/02/11 04:50:13;;;;;;;34.23;26.70;;;-1.60;99.90;;;;;;4925026;29;20448;-77
2023/02/11 04:52:41;;;;;;;35.90;26.83;;;-1.60;99.90;;;;;;4921334;29;20471;-78
2023/02/11 04:55:08;;;;;;;33.67;26.20;;;-1.60;99.90;;;;;;4923676;29;20459;-77
2023/02/11 04:57:35;;;;;;;32.07;25.50;;;-1.60;99.90;;;;;;4917446;29;20447;-77
2023/02/11 05:00:01;;;;;;;32.43;25.33;;;-1.60;99.90;;;;;;4915105;29;20497;-77
2023/02/11 05:02:28;;;;;;;34.50;24.60;;;-1.60;99.90;;;;;;4920919;29;20942;-78
2023/02/11 05:04:55;;;;;;;34.97;25.43;;;-1.60;99.90;;;;;;4912808;29;21028;-77
2023/02/11 05:07:22;;;;;;;33.87;25.47;;;-1.60;99.90;;;;;;4917024;29;21040;-77
2023/02/11 05:09:50;;;;;;;32.53;25.83;;;-1.60;99.90;;;;;;4917064;29;21039;-78
2023/02/11 05:12:18;;;;;;;39.90;26.70;;;-1.60;99.90;;;;;;4918058;29;20463;-77
2023/02/11 05:14:44;;;;;;;34.63;25.80;;;-1.50;99.90;;;;;;4920409;29;20545;-77
2023/02/11 05:17:11;;;;;;;37.13;26.83;;;-1.50;99.90;;;;;;4917997;29;20444;-78
2023/02/11 05:19:38;;;;;;;36.53;26.87;;;-1.50;99.90;;;;;;4911021;29;20543;-78
2023/02/11 05:22:05;;;;;;;36.80;27.10;;;-1.50;99.90;;;;;;4925179;29;20554;-80
2023/02/11 05:24:32;;;;;;;36.83;27.23;;;-1.40;99.90;;;;;;4925634;29;20471;-77
2023/02/11 05:27:00;;;;;;;35.30;26.87;;;-1.40;99.90;;;;;;4926157;29;20558;-78
2023/02/11 05:29:27;;;;;;;35.50;26.57;;;-1.30;99.90;;;;;;4915362;29;20863;-77
2023/02/11 05:31:54;;;;;;;32.57;25.33;;;-1.30;99.90;;;;;;4916516;29;20537;-78
2023/02/11 05:34:21;;;;;;;39.73;26.77;;;-1.20;99.90;;;;;;4924575;29;20936;-77
2023/02/11 05:36:48;;;;;;;31.40;25.20;;;-1.20;99.90;;;;;;4924633;29;20443;-77
2023/02/11 05:39:14;;;;;;;30.83;25.73;;;-1.20;99.90;;;;;;4925531;29;20878;-77
2023/02/11 05:41:41;;;;;;;32.37;26.27;;;-1.10;99.90;;;;;;4921625;29;20483;-77
2023/02/11 05:44:09;;;;;;;35.77;26.03;;;-1.10;99.90;;;;;;4920554;29;20456;-77
2023/02/11 05:46:36;;;;;;;32.83;25.07;;;-1.10;99.90;;;;;;4916605;29;20463;-78
2023/02/11 05:49:04;;;;;;;32.50;26.07;;;-1.00;99.90;;;;;;4913827;29;20969;-77
2023/02/11 05:51:31;;;;;;;33.13;25.33;;;-1.00;99.90;;;;;;4924069;29;20888;-78
2023/02/11 05:53:57;;;;;;;31.30;24.70;;;-1.10;99.90;;;;;;4921749;29;20445;-77
2023/02/11 05:56:24;;;;;;;32.10;25.20;;;-1.10;99.90;;;;;;4929057;29;20443;-77
2023/02/11 05:58:51;;;;;;;29.43;24.13;;;-1.10;99.90;;;;;;4920317;29;20988;-77
2023/02/11 06:01:19;;;;;;;33.20;26.67;;;-0.90;99.90;;;;;;4916467;29;20941;-84
2023/02/11 06:03:48;;;;;;;31.27;25.80;;;-0.90;99.90;;;;;;4913806;29;20841;-81
2023/02/11 06:06:15;;;;;;;31.77;25.63;;;-0.90;99.90;;;;;;4917753;29;20456;-81
2023/02/11 06:08:42;;;;;;;34.83;26.67;;;-0.90;99.90;;;;;;4924017;29;20449;-82
2023/02/11 06:11:09;;;;;;;36.50;26.90;;;-0.90;99.90;;;;;;4923873;29;20536;-79
2023/02/11 06:13:36;;;;;;;34.17;26.13;;;-0.90;99.90;;;;;;4916588;29;20517;-82
2023/02/11 06:16:03;;;;;;;32.80;26.03;;;-0.90;99.90;;;;;;4918184;29;20510;-82
2023/02/11 06:18:32;;;;;;;32.70;25.50;;;-0.80;99.90;;;;;;4923573;29;20444;-82
2023/02/11 06:20:59;;;;;;;30.30;26.50;;;-0.80;99.90;;;;;;4905813;29;20489;-81
2023/02/11 06:23:26;;;;;;;32.90;25.87;;;-0.80;99.90;;;;;;4923912;29;20451;-83
2023/02/11 06:25:53;;;;;;;34.70;27.50;;;-0.80;99.90;;;;;;4928074;29;20471;-82
2023/02/11 06:28:20;;;;;;;34.97;26.10;;;-0.80;99.90;;;;;;4924079;29;20445;-82
2023/02/11 06:30:46;;;;;;;36.07;26.93;;;-0.90;99.90;;;;;;4922281;29;21027;-82
2023/02/11 06:33:13;;;;;;;32.00;25.60;;;-0.90;99.90;;;;;;4932366;29;20457;-77
2023/02/11 06:35:41;;;;;;;33.57;26.50;;;-0.80;99.90;;;;;;4923967;29;20455;-76
2023/02/11 06:38:08;;;;;;;30.93;25.17;;;-0.80;99.90;;;;;;4921817;29;21072;-77
2023/02/11 06:40:35;;;;;;;35.33;27.47;;;-0.70;99.90;;;;;;4925509;29;21022;-78
2023/02/11 06:43:02;;;;;;;33.10;25.53;;;-0.70;99.90;;;;;;4924935;29;20479;-77
2023/02/11 06:45:28;;;;;;;33.47;26.10;;;-0.70;99.90;;;;;;4916725;29;20460;-77
2023/02/11 06:47:55;;;;;;;32.90;25.63;;;-0.70;99.90;;;;;;4928677;29;20462;-77
2023/02/11 06:50:22;;;;;;;34.40;26.17;;;-0.70;99.90;;;;;;4917260;29;20551;-78
2023/02/11 06:52:50;;;;;;;34.70;25.73;;;-0.70;99.90;;;;;;4924472;29;20455;-78
2023/02/11 06:55:17;;;;;;;33.13;25.90;;;-0.60;99.90;;;;;;4921112;29;20445;-77
2023/02/11 06:57:44;;;;;;;34.30;26.67;;;-0.60;99.90;;;;;;4924449;29;20479;-83
2023/02/11 07:00:12;;;;;;;35.00;27.40;;;-0.60;99.90;;;;;;4920827;29;20456;-82
2023/02/11 07:02:39;;;;;;;34.50;27.77;;;-0.50;99.90;;;;;;4925480;29;20487;-82
2023/02/11 07:05:07;;;;;;;36.30;28.80;;;-0.50;99.90;;;;;;4922412;29;20444;-79
2023/02/11 07:07:34;;;;;;;36.07;28.00;;;-0.50;99.90;;;;;;4920584;29;20448;-80
2023/02/11 07:10:03;;;;;;;29.00;25.70;;;-0.40;99.90;;;;;;4923886;29;20463;-80
2023/02/11 07:12:30;;;;;;;35.37;26.73;;;-0.30;99.90;;;;;;4921867;29;20984;-81
2023/02/11 07:14:57;;;;;;;37.83;29.43;;;-0.30;99.90;;;;;;4922290;29;20914;-82
2023/02/11 07:17:24;;;;;;;37.47;29.60;;;-0.20;99.90;;;;;;4917457;29;20460;-82
2023/02/11 07:19:50;;;;;;;34.90;26.97;;;-0.20;99.90;;;;;;4929115;29;20735;-82
2023/02/11 07:22:17;;;;;;;35.90;29.03;;;-0.20;99.90;;;;;;4923178;29;20486;-81
2023/02/11 07:24:44;;;;;;;33.93;27.00;;;-0.20;99.90;;;;;;4930853;29;20891;-80
2023/02/11 07:27:13;;;;;;;34.50;28.33;;;-0.10;99.90;;;;;;4925595;29;20441;-80
2023/02/11 07:29:41;;;;;;;35.60;28.13;;;-0.10;99.90;;;;;;4930700;29;21260;-79
2023/02/11 07:32:08;;;;;;;36.97;28.80;;;-0.10;99.90;;;;;;4916714;29;20501;-80
2023/02/11 07:34:35;;;;;;;34.07;28.23;;;0.00;99.90;;;;;;4900676;29;20451;-78
2023/02/11 07:37:02;;;;;;;38.23;30.07;;;0.10;99.90;;;;;;4912167;29;20446;-77
2023/02/11 07:39:28;;;;;;;34.83;28.40;;;0.20;99.90;;;;;;4917619;29;20450;-77
2023/02/11 07:41:55;;;;;;;34.57;27.60;;;0.30;99.90;;;;;;4926566;29;20488;-77
2023/02/11 07:44:24;;;;;;;36.93;28.93;;;0.40;99.90;;;;;;4922838;29;20452;-78
2023/02/11 07:46:51;;;;;;;36.83;27.87;;;0.50;99.90;;;;;;4929368;29;20458;-77
2023/02/11 07:49:17;;;;;;;33.93;27.43;;;0.60;99.90;;;;;;4914279;29;20493;-77
2023/02/11 07:51:44;;;;;;;38.10;28.43;;;0.70;99.90;;;;;;4911559;29;20892;-77
2023/02/11 07:54:12;;;;;;;33.93;27.00;;;0.80;99.90;;;;;;4910229;29;20524;-77
2023/02/11 07:56:38;;;;;;;37.50;28.60;;;0.90;99.90;;;;;;4925032;29;20441;-77
2023/02/11 07:59:06;;;;;;;37.70;28.03;;;1.00;99.90;;;;;;4924792;29;20466;-77
2023/02/11 08:01:34;;;;;;;32.37;27.47;;;1.10;99.90;;;;;;4923033;29;20856;-77
2023/02/11 08:04:02;;;;;;;33.10;27.20;;;1.10;99.90;;;;;;4927558;29;20967;-79
2023/02/11 08:06:31;;;;;;;30.07;26.03;;;1.30;99.90;;;;;;4913930;29;20445;-78
2023/02/11 08:08:58;;;;;;;32.33;27.20;;;1.40;99.90;;;;;;4915265;29;20463;-78
2023/02/11 08:11:27;;;;;;;30.93;27.00;;;1.70;99.90;;;;;;4927954;29;20471;-77
2023/02/11 08:13:54;;;;;;;35.73;30.00;;;2.10;99.90;;;;;;4921713;29;20473;-78
2023/02/11 08:16:23;;;;;;;34.97;28.23;;;2.20;99.90;;;;;;4916239;29;21064;-77
2023/02/11 08:18:53;;;;;;;35.20;28.80;;;2.40;99.90;;;;;;4932165;29;21002;-77
2023/02/11 08:21:20;;;;;;;34.23;28.47;;;2.60;99.90;;;;;;4916417;29;21064;-77
2023/02/11 08:23:48;;;;;;;34.57;27.93;;;3.00;99.90;;;;;;4923456;29;20237;-78
2023/02/11 08:26:16;;;;;;;36.00;28.10;;;3.40;99.90;;;;;;4930460;29;20647;-80
2023/02/11 08:28:45;;;;;;;33.47;28.17;;;3.90;99.90;;;;;;4929958;29;20214;-83
2023/02/11 08:31:14;;;;;;;33.40;27.17;;;4.10;99.90;;;;;;4910438;29;20224;-84
2023/02/11 08:33:41;;;;;;;32.27;28.77;;;4.60;99.90;;;;;;4924506;29;20481;-85
2023/02/11 08:36:11;;;;;;;32.27;27.07;;;5.00;99.90;;;;;;4917468;29;20200;-79
2023/02/11 08:38:38;;;;;;;31.60;26.90;;;5.40;99.90;;;;;;4924715;29;20196;-78
2023/02/11 08:41:06;;;;;;;30.33;27.13;;;5.50;99.90;;;;;;4916967;29;20315;-78
2023/02/11 08:43:32;;;;;;;30.47;26.40;;;6.00;99.90;;;;;;4925812;29;20299;-78
2023/02/11 08:46:00;;;;;;;30.93;25.90;;;6.30;99.90;;;;;;4925970;29;20205;-78
2023/02/11 08:48:27;;;;;;;27.50;24.67;;;6.20;99.90;;;;;;4921492;29;20233;-79
2023/02/11 08:50:54;;;;;;;27.10;24.17;;;6.00;99.90;;;;;;4914123;29;20704;-78
2023/02/11 08:53:22;;;;;;;27.77;24.77;;;5.80;99.90;;;;;;4927683;29;20236;-78
2023/02/11 08:55:50;;;;;;;26.57;23.70;;;5.70;99.90;;;;;;4916177;29;20668;-79
2023/02/11 08:58:17;;;;;;;27.37;24.43;;;5.50;99.90;;;;;;4929552;29;20239;-78
2023/02/11 09:00:44;;;;;;;27.00;23.90;;;5.80;99.90;;;;;;4917770;29;20222;-78
2023/02/11 09:03:11;;;;;;;30.37;25.93;;;5.70;99.90;;;;;;4928436;29;20215;-78
2023/02/11 09:05:41;;;;;;;27.30;24.43;;;5.50;99.90;;;;;;4920364;29;20208;-77
2023/02/11 09:08:08;;;;;;;29.27;25.70;;;5.30;99.90;;;;;;4915063;29;20209;-79
2023/02/11 09:10:36;;;;;;;29.43;26.37;;;5.10;99.90;;;;;;4925500;29;20205;-78
2023/02/11 09:13:03;;;;;;;27.10;24.13;;;4.80;99.90;;;;;;4915575;29;20277;-83
2023/02/11 09:15:31;;;;;;;27.57;24.03;;;4.70;99.90;;;;;;4916837;29;20205;-82
2023/02/11 09:17:58;;;;;;;26.07;23.37;;;4.70;99.90;;;;;;4926290;29;20279;-84
2023/02/11 09:20:26;;;;;;;24.30;21.70;;;4.80;99.90;;;;;;4923299;29;20700;-85
2023/02/11 09:22:54;;;;;;;25.47;22.33;;;5.10;99.90;;;;;;4920511;29;20241;-80
2023/02/11 09:25:21;;;;;;;24.63;22.03;;;5.40;99.90;;;;;;4921695;29;20215;-80
2023/02/11 09:27:50;;;;;;;25.27;22.60;;;6.00;99.90;;;;;;4916549;29;20300;-83
2023/02/11 09:30:17;;;;;;;24.43;21.83;;;6.30;99.90;;;;;;4919689;29;20209;-78
2023/02/11 09:32:43;;;;;;;25.07;22.37;;;6.80;99.90;;;;;;4913176;29;20328;-77
2023/02/11 09:35:10;;;;;;;24.27;21.70;;;6.90;99.90;;;;;;4921302;29;20323;-77
2023/02/11 09:37:37;;;;;;;23.73;21.23;;;6.90;99.90;;;;;;4918047;29;20217;-78
2023/02/11 09:40:05;;;;;;;24.43;21.93;;;7.10;99.90;;;;;;4910974;29;20232;-77
2023/02/11 09:42:48;;;;;;;24.47;21.73;;;7.10;99.90;;;;;;4922828;29;20284;-77
2023/02/11 09:45:19;;;;;;;24.33;21.73;;;7.20;99.90;;;;;;4926824;29;20206;-78
2023/02/11 09:47:49;;;;;;;29.93;25.20;;;7.20;99.90;;;;;;4932192;29;20230;-77
2023/02/11 09:50:22;;;;;;;27.23;23.23;;;7.10;99.90;;;;;;4935956;29;20568;-77
2023/02/11 09:52:55;;;;;;;25.70;23.00;;;7.20;99.90;;;;;;4927621;29;20195;-77
2023/02/11 09:55:24;;;;;;;25.37;22.70;;;7.30;99.90;;;;;;4935742;29;20217;-77
2023/02/11 09:57:51;;;;;;;24.63;22.13;;;7.30;99.90;;;;;;4935203;29;20648;-77
2023/02/11 10:00:24;;;;;;;26.90;23.50;;;7.30;99.90;;;;;;4934618;29;20692;-79
2023/02/11 10:03:03;;;;;;;24.87;21.87;;;7.40;99.90;;;;;;4936368;29;20211;-78
2023/02/11 10:05:43;;;;;;;24.13;20.67;;;7.40;99.90;;;;;;4917807;29;20203;-77
2023/02/11 10:08:20;;;;;;;21.73;19.50;;;7.50;99.90;;;;;;4924388;29;20202;-78
2023/02/11 10:10:51;;;;;;;23.93;21.40;;;7.60;99.90;;;;;;4919130;29;20274;-78
2023/02/11 10:13:38;;;;;;;22.23;19.97;;;7.60;99.90;;;;;;4919729;29;20634;-78
2023/02/11 10:16:19;;;;;;;23.33;20.87;;;7.70;99.90;;;;;;4923330;29;20196;-77
2023/02/11 10:19:06;;;;;;;25.07;22.37;;;7.60;99.90;;;;;;4919691;29;20687;-77
2023/02/11 10:21:40;;;;;;;25.93;21.23;;;7.60;99.90;;;;;;4923031;29;20719;-78
2023/02/11 10:24:12;;;;;;;24.57;20.87;;;7.60;99.90;;;;;;4918336;29;20217;-77
2023/02/11 10:26:40;;;;;;;26.07;21.77;;;7.50;99.90;;;;;;4919996;29;20215;-78
2023/02/11 10:29:18;;;;;;;24.37;21.83;;;7.40;99.90;;;;;;4919902;29;20234;-76
2023/02/11 10:31:48;;;;;;;23.57;21.23;;;7.30;99.90;;;;;;4915106;29;20718;-77
2023/02/11 10:34:15;;;;;;;23.23;20.87;;;7.40;99.90;;;;;;4922826;29;20731;-78
2023/02/11 10:36:44;;;;;;;24.77;21.57;;;7.50;99.90;;;;;;4917929;29;20214;-78
2023/02/11 10:39:13;;;;;;;28.83;23.33;;;7.50;99.90;;;;;;4912553;29;20208;-79
2023/02/11 10:41:45;;;;;;;24.60;21.90;;;7.50;99.90;;;;;;4917942;29;20760;-77
2023/02/11 10:44:23;;;;;;;23.07;20.57;;;7.40;99.90;;;;;;4919439;29;20280;-78
2023/02/11 10:46:52;;;;;;;22.93;20.50;;;7.30;99.90;;;;;;4920409;29;20256;-77
2023/02/11 10:49:37;;;;;;;23.10;20.33;;;7.30;99.90;;;;;;4926714;29;20691;-77
2023/02/11 10:52:14;;;;;;;24.07;21.47;;;7.30;99.90;;;;;;4925840;29;20215;-77
2023/02/11 10:54:41;;;;;;;23.53;21.03;;;7.10;99.90;;;;;;4921798;29;20209;-77
2023/02/11 10:57:18;;;;;;;25.30;21.43;;;6.90;99.90;;;;;;4926356;29;20270;-78
2023/02/11 10:59:45;;;;;;;25.43;22.57;;;6.70;99.90;;;;;;4922442;29;20201;-77
2023/02/11 11:02:23;;;;;;;24.63;20.80;;;6.60;99.90;;;;;;4920733;29;20700;-77
2023/02/11 11:04:56;;;;;;;22.93;20.47;;;6.50;99.90;;;;;;4926670;29;20220;-78
2023/02/11 11:07:26;;;;;;;26.23;23.47;;;6.50;99.90;;;;;;4929586;29;20568;-78
2023/02/11 11:09:55;;;;;;;26.70;23.30;;;6.50;99.90;;;;;;4924034;29;20666;-78
2023/02/11 11:12:28;;;;;;;23.47;20.83;;;6.60;99.90;;;;;;4920378;29;20745;-78
2023/02/11 11:14:57;;;;;;;28.47;22.23;;;6.60;99.90;;;;;;4923474;29;20275;-77
2023/02/11 11:17:27;;;;;;;23.27;20.87;;;6.70;99.90;;;;;;4926041;29;20643;-78
2023/02/11 11:20:13;;;;;;;23.30;20.90;;;6.60;99.90;;;;;;4921042;29;20543;-78
2023/02/11 11:22:41;;;;;;;23.07;20.30;;;6.60;99.90;;;;;;4922108;29;20644;-78
2023/02/11 11:25:21;;;;;;;21.57;19.23;;;6.70;99.90;;;;;;4927879;29;20240;-78
2023/02/11 11:27:49;;;;;;;20.97;18.80;;;6.70;99.90;;;;;;4923297;29;20263;-78
2023/02/11 11:30:17;;;;;;;21.57;19.17;;;6.70;99.90;;;;;;4917002;29;20209;-78
2023/02/11 11:32:46;;;;;;;21.43;19.23;;;6.70;99.90;;;;;;4927752;29;20720;-78
2023/02/11 11:35:24;;;;;;;19.63;17.63;;;6.70;99.90;;;;;;4921386;29;20286;-78
2023/02/11 11:37:54;;;;;;;20.87;18.87;;;6.70;99.90;;;;;;4922001;29;20667;-77
2023/02/11 11:40:24;;;;;;;20.90;18.80;;;6.80;99.90;;;;;;4921482;29;20194;-78
2023/02/11 11:43:04;;;;;;;23.27;19.80;;;6.80;99.90;;;;;;4919548;29;20707;-78
2023/02/11 11:45:31;;;;;;;20.97;18.60;;;6.80;99.90;;;;;;4917966;29;20203;-78
2023/02/11 11:48:06;;;;;;;22.23;19.93;;;6.80;99.90;;;;;;4922702;29;20237;-77
2023/02/11 11:50:36;;;;;;;19.40;17.43;;;6.80;99.90;;;;;;4918904;29;20217;-79
2023/02/11 11:53:09;;;;;;;19.47;17.37;;;6.90;99.90;;;;;;4920398;29;20200;-77
2023/02/11 11:55:41;;;;;;;19.43;17.60;;;6.90;99.90;;;;;;4923495;29;20269;-77
2023/02/11 11:58:15;;;;;;;19.93;17.83;;;6.90;99.90;;;;;;4923651;29;20216;-77
2023/02/11 12:00:51;;;;;;;20.43;18.17;;;6.90;99.90;;;;;;4917252;29;20210;-77
2023/02/11 12:03:57;;;;;;;18.67;16.87;;;7.00;99.90;;;;;;4924461;29;20226;-77
2023/02/11 12:06:37;;;;;;;20.97;18.93;;;7.10;99.90;;;;;;4925840;29;20210;-78
2023/02/11 12:09:11;;;;;;;18.70;16.83;;;7.10;99.90;;;;;;4923336;29;20293;-78
2023/02/11 12:11:57;;;;;;;19.40;17.43;;;7.10;99.90;;;;;;4916839;29;20691;-77
2023/02/11 12:14:31;;;;;;;19.97;17.80;;;7.20;99.90;;;;;;4922639;29;20197;-77
2023/02/11 12:17:09;;;;;;;18.33;16.50;;;7.20;99.90;;;;;;4923366;29;20208;-77
2023/02/11 12:20:06;;;;;;;17.47;15.77;;;7.30;99.90;;;;;;4921451;29;20711;-77
2023/02/11 12:22:46;;;;;;;17.97;16.17;;;7.50;99.90;;;;;;4919634;29;20301;-84
2023/02/11 12:25:27;;;;;;;17.97;16.23;;;7.60;99.90;;;;;;4926716;29;20266;-83
2023/02/11 12:28:03;;;;;;;17.47;15.67;;;7.70;99.90;;;;;;4923109;29;20212;-81
2023/02/11 12:30:49;;;;;;;17.80;16.13;;;7.90;99.90;;;;;;4927561;29;20206;-79
2023/02/11 12:33:26;;;;;;;18.00;16.23;;;8.10;99.90;;;;;;4916940;29;20275;-80
2023/02/11 12:35:59;;;;;;;17.23;15.33;;;8.20;99.90;;;;;;4904855;29;20286;-81
2023/02/11 12:38:41;;;;;;;17.67;15.87;;;8.40;99.90;;;;;;4913730;29;20203;-80
2023/02/11 12:44:19;;;;;;;16.20;14.80;;;8.80;99.90;;;;;;4918315;29;20224;-80
2023/02/11 12:46:50;;;;;;;18.10;16.30;;;9.00;99.90;;;;;;4920716;29;20869;-79
2023/02/11 12:49:54;;;;;;;16.50;14.77;;;9.10;99.90;;;;;;4925181;29;20711;-78
2023/02/11 12:52:33;;;;;;;15.43;13.87;;;9.20;99.90;;;;;;4920728;29;20292;-78
2023/02/11 12:55:08;;;;;;;14.33;13.13;;;9.30;99.90;;;;;;4921778;29;20618;-79
2023/02/11 12:57:37;;;;;;;15.10;13.70;;;9.40;99.90;;;;;;4923059;29;20253;-79
2023/02/11 13:00:13;;;;;;;14.83;13.33;;;9.40;99.90;;;;;;4924575;29;20196;-82
2023/02/11 13:02:47;;;;;;;14.73;13.40;;;9.50;99.90;;;;;;4924480;29;20237;-78
2023/02/11 13:05:23;;;;;;;15.03;13.73;;;9.50;99.90;;;;;;4927500;29;20224;-78
2023/02/11 13:07:53;;;;;;;14.70;13.30;;;9.60;99.90;;;;;;4924792;29;20278;-78
2023/02/11 13:10:30;;;;;;;15.47;13.97;;;9.70;99.90;;;;;;4917251;29;20205;-79
2023/02/11 13:13:16;;;;;;;15.33;13.93;;;9.60;99.90;;;;;;4924691;29;20199;-79
2023/02/11 13:15:47;;;;;;;14.27;13.00;;;9.60;99.90;;;;;;4919843;29;20692;-79
2023/02/11 13:18:32;;;;;;;14.50;13.00;;;9.70;99.90;;;;;;4923808;29;20204;-79
2023/02/11 13:21:08;;;;;;;14.93;13.67;;;9.70;99.90;;;;;;4925579;29;20650;-79
2023/02/11 13:23:40;;;;;;;13.77;12.57;;;9.80;99.90;;;;;;4920842;29;20246;-82
2023/02/11 13:26:17;;;;;;;14.00;12.80;;;9.80;99.90;;;;;;4926027;29;20204;-80
2023/02/11 13:28:52;;;;;;;15.30;13.87;;;9.80;99.90;;;;;;4927675;29;20206;-83
2023/02/11 13:31:19;;;;;;;14.67;13.37;;;9.70;99.90;;;;;;4918997;29;20286;-77
2023/02/11 13:33:48;;;;;;;14.07;12.87;;;9.70;99.90;;;;;;4911756;29;20199;-78
2023/02/11 13:36:23;;;;;;;13.37;12.37;;;9.60;99.90;;;;;;4925521;29;20556;-84
2023/02/11 13:38:57;;;;;;;12.87;11.87;;;9.50;99.90;;;;;;4926073;29;20667;-82
2023/02/11 13:41:29;;;;;;;13.03;12.00;;;9.40;99.90;;;;;;4927318;29;20231;-77
2023/02/11 13:44:23;;;;;;;12.67;11.67;;;9.30;99.90;;;;;;4928616;29;20211;-84
2023/02/11 13:47:02;;;;;;;12.30;11.40;;;9.30;99.90;;;;;;4902548;29;20208;-77
2023/02/11 13:49:35;;;;;;;12.50;11.53;;;9.40;99.90;;;;;;4918762;29;20208;-78
2023/02/11 13:52:04;;;;;;;12.50;11.50;;;9.50;99.90;;;;;;4905880;29;20624;-77
2023/02/11 13:54:35;;;;;;;12.03;11.10;;;9.60;99.90;;;;;;4906523;29;20197;-80
2023/02/11 13:57:33;;;;;;;12.23;11.17;;;9.80;99.90;;;;;;4923780;29;20256;-79
2023/02/11 14:00:01;;;;;;;11.90;11.00;;;9.90;99.90;;;;;;4905746;29;20572;-79
2023/02/11 14:11:11;;;;;;;13.37;12.20;;;9.80;99.90;;;;;;4932808;29;20225;-78
2023/02/11 14:14:12;;;;;;;13.17;12.07;;;9.80;99.90;;;;;;4925496;29;20204;-78
2023/02/11 14:17:20;;;;;;;13.67;12.50;;;9.70;99.90;;;;;;4936834;29;20203;-79
2023/02/11 14:19:48;;;;;;;14.40;13.00;;;9.70;99.90;;;;;;4920474;29;20200;-78
2023/02/11 14:22:18;;;;;;;13.97;12.77;;;9.70;99.90;;;;;;4931118;29;20255;-78
2023/02/11 14:24:51;;;;;;;14.13;12.83;;;9.60;99.90;;;;;;4926121;29;20473;-78
2023/02/11 14:27:33;;;;;;;14.70;13.47;;;9.50;99.90;;;;;;4924973;29;20627;-79
2023/02/11 14:30:21;;;;;;;14.97;13.67;;;9.40;99.90;;;;;;4927242;29;20204;-79
2023/02/11 14:33:04;;;;;;;14.87;13.47;;;9.40;99.90;;;;;;4932194;29;20223;-80
2023/02/11 14:35:39;;;;;;;15.27;13.97;;;9.40;99.90;;;;;;4923861;29;20200;-77
2023/02/11 14:38:15;;;;;;;15.10;13.80;;;9.40;99.90;;;;;;4931935;29;20230;-77
2023/02/11 14:40:50;;;;;;;14.30;13.10;;;9.40;99.90;;;;;;4910441;29;20250;-79
2023/02/11 14:43:23;;;;;;;15.47;14.07;;;9.40;99.90;;;;;;4919498;29;20204;-78
2023/02/11 14:45:57;;;;;;;15.17;13.67;;;9.30;99.90;;;;;;4929212;29;20201;-77
2023/02/11 14:48:29;;;;;;;14.93;13.67;;;9.20;99.90;;;;;;4923864;29;20200;-78
2023/02/11 14:51:01;;;;;;;16.27;14.67;;;9.10;99.90;;;;;;4927581;29;20234;-78
2023/02/11 14:53:30;;;;;;;15.90;14.30;;;9.10;99.90;;;;;;4924468;29;20207;-77
2023/02/11 14:55:57;;;;;;;15.63;14.33;;;9.00;99.90;;;;;;4924323;29;20231;-79
2023/02/11 14:58:26;;;;;;;18.33;16.43;;;9.00;99.90;;;;;;4921486;29;20266;-77
2023/02/11 15:00:59;;;;;;;18.20;16.33;;;8.80;99.90;;;;;;4929523;29;20238;-77
2023/02/11 15:03:34;;;;;;;18.20;16.30;;;8.70;99.90;;;;;;4921433;29;20218;-84
2023/02/11 15:06:11;;;;;;;18.20;16.60;;;8.60;99.90;;;;;;4917224;29;20249;-84
2023/02/11 15:08:43;;;;;;;17.80;16.20;;;8.50;99.90;;;;;;4928113;29;20281;-84
2023/02/11 15:11:13;;;;;;;18.40;16.70;;;8.40;99.90;;;;;;4917267;29;20252;-80
2023/02/11 15:13:46;;;;;;;17.90;16.20;;;8.30;99.90;;;;;;4929578;29;20214;-78
2023/02/11 15:16:18;;;;;;;17.23;15.73;;;8.30;99.90;;;;;;4924478;29;20204;-78
2023/02/11 15:18:48;;;;;;;17.77;16.07;;;8.20;99.90;;;;;;4920311;29;20203;-78
2023/02/11 15:21:21;;;;;;;21.23;19.17;;;8.10;99.90;;;;;;4927072;29;20337;-77
2023/02/11 15:24:00;;;;;;;18.90;17.10;;;7.90;99.90;;;;;;4915479;29;20227;-79
2023/02/11 15:26:27;;;;;;;20.27;18.33;;;7.90;99.90;;;;;;4932788;29;20199;-80
2023/02/11 15:28:54;;;;;;;19.67;17.87;;;7.80;99.90;;;;;;4928598;29;20207;-79
2023/02/11 15:31:25;;;;;;;21.07;19.07;;;7.70;99.90;;;;;;4919608;29;20640;-78
2023/02/11 15:33:52;;;;;;;20.50;18.43;;;7.70;99.90;;;;;;4924502;29;20825;-79
2023/02/11 15:36:26;;;;;;;21.00;19.00;;;7.60;99.90;;;;;;4926007;29;20255;-77
2023/02/11 15:39:16;;;;;;;19.83;17.93;;;7.60;99.90;;;;;;4910331;29;20203;-79
2023/02/11 15:41:46;;;;;;;20.03;18.00;;;7.50;99.90;;;;;;4923447;29;20230;-85
2023/02/11 15:44:30;;;;;;;20.90;18.87;;;7.40;99.90;;;;;;4923813;29;20227;-80
2023/02/11 15:46:59;;;;;;;18.87;17.17;;;7.40;99.90;;;;;;4917010;29;20237;-85
2023/02/11 15:49:27;;;;;;;20.60;18.70;;;7.40;99.90;;;;;;4932649;29;20241;-84
2023/02/11 15:51:56;;;;;;;20.60;18.73;;;7.30;99.90;;;;;;4925528;29;20280;-84
2023/02/11 15:54:28;;;;;;;19.73;17.93;;;7.30;99.90;;;;;;4937952;29;20239;-85
2023/02/11 15:57:21;;;;;;;20.17;18.27;;;7.30;99.90;;;;;;4942865;29;20222;-84
2023/02/11 15:59:51;;;;;;;18.47;16.67;;;7.20;99.90;;;;;;4940451;29;20218;-85
2023/02/11 16:02:25;;;;;;;18.90;17.20;;;7.20;99.90;;;;;;4942932;29;20219;-81
2023/02/11 16:04:54;;;;;;;17.77;16.23;;;7.10;99.90;;;;;;4941417;29;20626;-83